sensor_id;sensor_type;location;lat;lon;timestamp;pressure;altitude;pressure_sealevel;temperature;humidity
46199;BME280;31928;52.104;10.030;2023-02-10T00:01:06;102316.63;;;7.10;46.50
46199;BME280;31928;52.104;10.030;2023-02-10T00:03:34;102319.59;;;7.07;46.49
46199;BME280;31928;52.104;10.030;2023-02-10T00:06:01;102308.91;;;7.07;46.67
46199;BME280;31928;52.104;10.030;2023-02-10T00:08:29;102317.03;;;7.05;46.95
46199;BME280;31928;52.104;10.030;2023-02-10T00:11:01;102321.13;;;7.09;46.64
46199;BME280;31928;52.104;10.030;2023-02-10T00:13:28;102321.53;;;7.05;47.10
46199;BME280;31928;52.104;10.030;2023-02-10T00:16:03;102329.94;;;7.10;47.07
46199;BME280;31928;52.104;10.030;2023-02-10T00:18:31;102319.69;;;7.05;47.13
46199;BME280;31928;52.104;10.030;2023-02-10T00:21:08;102327.97;;;7.12;47.14
46199;BME280;31928;52.104;10.030;2023-02-10T00:23:35;102330.25;;;7.07;47.44
46199;BME280;31928;52.104;10.030;2023-02-10T00:26:06;102335.59;;;7.07;48.23
46199;BME280;31928;52.104;10.030;2023-02-10T00:28:33;102326.03;;;7.04;48.42
46199;BME280;31928;52.104;10.030;2023-02-10T00:31:08;102316.63;;;7.10;48.02
46199;BME280;31928;52.104;10.030;2023-02-10T00:33:35;102318.03;;;7.04;48.46
46199;BME280;31928;52.104;10.030;2023-02-10T00:36:03;102324.59;;;7.28;45.69
46199;BME280;31928;52.104;10.030;2023-02-10T00:38:29;102329.13;;;7.09;48.17
46199;BME280;31928;52.104;10.030;2023-02-10T00:41:01;102333.31;;;7.12;48.13
46199;BME280;31928;52.104;10.030;2023-02-10T00:43:28;102334.03;;;7.04;49.03
46199;BME280;31928;52.104;10.030;2023-02-10T00:45:54;102330.38;;;7.05;48.67
46199;BME280;31928;52.104;10.030;2023-02-10T00:48:21;102326.88;;;7.05;48.78
46199;BME280;31928;52.104;10.030;2023-02-10T00:50:47;102334.88;;;7.05;48.71
46199;BME280;31928;52.104;10.030;2023-02-10T00:53:14;102337.53;;;7.05;49.22
46199;BME280;31928;52.104;10.030;2023-02-10T00:55:40;102340.06;;;7.06;48.94
46199;BME280;31928;52.104;10.030;2023-02-10T00:58:07;102337.53;;;7.05;49.54
46199;BME280;31928;52.104;10.030;2023-02-10T01:00:34;102338.25;;;7.07;49.19
46199;BME280;31928;52.104;10.030;2023-02-10T01:03:00;102334.88;;;7.05;49.94
46199;BME280;31928;52.104;10.030;2023-02-10T01:05:27;102342.03;;;7.04;49.76
46199;BME280;31928;52.104;10.030;2023-02-10T01:07:54;102345.53;;;7.05;50.08
46199;BME280;31928;52.104;10.030;2023-02-10T01:10:20;102344.56;;;7.06;49.91
46199;BME280;31928;52.104;10.030;2023-02-10T01:12:47;102347.38;;;7.04;50.20
46199;BME280;31928;52.104;10.030;2023-02-10T01:15:13;102358.88;;;7.05;49.88
46199;BME280;31928;52.104;10.030;2023-02-10T01:17:40;102349.91;;;7.06;50.06
46199;BME280;31928;52.104;10.030;2023-02-10T01:20:07;102348.19;;;7.05;50.09
46199;BME280;31928;52.104;10.030;2023-02-10T01:22:34;102343.16;;;7.02;50.72
46199;BME280;31928;52.104;10.030;2023-02-10T01:25:01;102344.00;;;7.02;50.22
46199;BME280;31928;52.104;10.030;2023-02-10T01:27:27;102350.31;;;7.01;50.79
46199;BME280;31928;52.104;10.030;2023-02-10T01:29:54;102342.16;;;7.03;50.60
46199;BME280;31928;52.104;10.030;2023-02-10T01:32:21;102351.03;;;7.03;50.40
46199;BME280;31928;52.104;10.030;2023-02-10T01:34:47;102359.03;;;7.03;50.82
46199;BME280;31928;52.104;10.030;2023-02-10T01:37:14;102360.81;;;7.03;50.59
46199;BME280;31928;52.104;10.030;2023-02-10T01:39:40;102362.81;;;7.01;51.04
46199;BME280;31928;52.104;10.030;2023-02-10T01:42:11;102373.19;;;7.04;50.93
46199;BME280;31928;52.104;10.030;2023-02-10T01:47:06;102368.13;;;7.01;50.89
46199;BME280;31928;52.104;10.030;2023-02-10T01:49:36;102360.13;;;7.01;51.32
46199;BME280;31928;52.104;10.030;2023-02-10T01:52:11;102369.84;;;7.02;51.40
46199;BME280;31928;52.104;10.030;2023-02-10T01:55:04;102358.56;;;7.08;51.13
46199;BME280;31928;52.104;10.030;2023-02-10T01:57:32;102358.75;;;6.97;51.58
46199;BME280;31928;52.104;10.030;2023-02-10T02:00:01;102354.09;;;6.99;51.36
46199;BME280;31928;52.104;10.030;2023-02-10T02:02:27;102359.72;;;6.96;51.68
46199;BME280;31928;52.104;10.030;2023-02-10T02:04:59;102371.50;;;7.03;51.18
46199;BME280;31928;52.104;10.030;2023-02-10T02:07:28;102353.25;;;6.98;51.69
46199;BME280;31928;52.104;10.030;2023-02-10T02:09:56;102357.06;;;6.96;51.69
46199;BME280;31928;52.104;10.030;2023-02-10T02:15:17;102363.78;;;7.00;51.24
46199;BME280;31928;52.104;10.030;2023-02-10T02:18:02;102361.13;;;7.00;51.41
46199;BME280;31928;52.104;10.030;2023-02-10T02:23:34;102353.84;;;7.02;50.61
46199;BME280;31928;52.104;10.030;2023-02-10T02:34:17;102379.66;;;6.92;51.29
46199;BME280;31928;52.104;10.030;2023-02-10T02:36:49;102380.63;;;6.91;51.35
46199;BME280;31928;52.104;10.030;2023-02-10T02:39:18;102378.81;;;6.91;51.36
46199;BME280;31928;52.104;10.030;2023-02-10T02:41:47;102377.97;;;6.91;51.60
46199;BME280;31928;52.104;10.030;2023-02-10T02:44:24;102364.63;;;6.91;51.24
46199;BME280;31928;52.104;10.030;2023-02-10T02:46:56;102362.81;;;6.91;51.21
46199;BME280;31928;52.104;10.030;2023-02-10T02:49:26;102365.59;;;6.90;51.36
46199;BME280;31928;52.104;10.030;2023-02-10T02:52:11;102377.13;;;7.00;50.81
46199;BME280;31928;52.104;10.030;2023-02-10T02:55:01;102372.66;;;7.00;50.30
46199;BME280;31928;52.104;10.030;2023-02-10T02:57:48;102378.09;;;6.99;50.54
46199;BME280;31928;52.104;10.030;2023-02-10T03:00:24;102383.88;;;6.94;50.81
46199;BME280;31928;52.104;10.030;2023-02-10T03:02:52;102374.88;;;6.86;51.57
46199;BME280;31928;52.104;10.030;2023-02-10T03:05:21;102379.09;;;6.88;51.41
46199;BME280;31928;52.104;10.030;2023-02-10T03:07:50;102370.41;;;6.86;51.50
46199;BME280;31928;52.104;10.030;2023-02-10T03:10:16;102374.03;;;6.85;51.24
46199;BME280;31928;52.104;10.030;2023-02-10T03:12:42;102374.19;;;6.84;51.47
46199;BME280;31928;52.104;10.030;2023-02-10T03:15:09;102375.16;;;6.83;51.70
46199;BME280;31928;52.104;10.030;2023-02-10T03:17:37;102371.78;;;6.81;51.54
46199;BME280;31928;52.104;10.030;2023-02-10T03:20:04;102363.94;;;6.79;51.33
46199;BME280;31928;52.104;10.030;2023-02-10T03:22:31;102363.09;;;6.79;51.36
46199;BME280;31928;52.104;10.030;2023-02-10T03:24:58;102362.28;;;6.78;51.06
46199;BME280;31928;52.104;10.030;2023-02-10T03:27:24;102361.41;;;6.78;51.19
46199;BME280;31928;52.104;10.030;2023-02-10T03:29:51;102349.63;;;6.99;49.02
46199;BME280;31928;52.104;10.030;2023-02-10T03:32:19;102361.41;;;6.78;51.05
46199;BME280;31928;52.104;10.030;2023-02-10T03:34:46;102368.97;;;6.73;51.21
46199;BME280;31928;52.104;10.030;2023-02-10T03:37:12;102370.09;;;6.70;51.14
46199;BME280;31928;52.104;10.030;2023-02-10T03:39:39;102367.56;;;6.69;51.15
46199;BME280;31928;52.104;10.030;2023-02-10T03:42:05;102376.53;;;6.68;51.35
46199;BME280;31928;52.104;10.030;2023-02-10T03:44:33;102375.13;;;6.64;51.47
46199;BME280;31928;52.104;10.030;2023-02-10T03:46:59;102381.47;;;6.63;51.57
46199;BME280;31928;52.104;10.030;2023-02-10T03:49:26;102382.44;;;6.62;51.33
46199;BME280;31928;52.104;10.030;2023-02-10T03:51:52;102372.91;;;6.59;51.49
46199;BME280;31928;52.104;10.030;2023-02-10T03:54:19;102382.03;;;6.57;51.72
46199;BME280;31928;52.104;10.030;2023-02-10T03:56:45;102383.97;;;6.55;51.35
46199;BME280;31928;52.104;10.030;2023-02-10T03:59:12;102391.97;;;6.55;51.30
46199;BME280;31928;52.104;10.030;2023-02-10T04:01:38;102384.97;;;6.54;51.57
46199;BME280;31928;52.104;10.030;2023-02-10T04:04:05;102383.28;;;6.53;51.51
46199;BME280;31928;52.104;10.030;2023-02-10T04:06:32;102397.56;;;6.52;51.99
46199;BME280;31928;52.104;10.030;2023-02-10T04:08:58;102399.41;;;6.52;51.62
46199;BME280;31928;52.104;10.030;2023-02-10T04:11:25;102409.06;;;6.53;51.71
46199;BME280;31928;52.104;10.030;2023-02-10T04:13:51;102398.41;;;6.53;51.82
46199;BME280;31928;52.104;10.030;2023-02-10T04:16:18;102397.56;;;6.52;51.83
46199;BME280;31928;52.104;10.030;2023-02-10T04:18:46;102404.59;;;6.53;52.03
46199;BME280;31928;52.104;10.030;2023-02-10T04:21:13;102405.28;;;6.55;51.82
46199;BME280;31928;52.104;10.030;2023-02-10T04:23:40;102404.31;;;6.56;52.00
46199;BME280;31928;52.104;10.030;2023-02-10T04:26:06;102407.44;;;6.80;49.40
46199;BME280;31928;52.104;10.030;2023-02-10T04:28:33;102406.56;;;6.60;51.42
46199;BME280;31928;52.104;10.030;2023-02-10T04:31:00;102401.38;;;6.59;51.79
46199;BME280;31928;52.104;10.030;2023-02-10T04:33:28;102396.03;;;6.59;51.90
46199;BME280;31928;52.104;10.030;2023-02-10T04:35:55;102397.72;;;6.60;51.73
46199;BME280;31928;52.104;10.030;2023-02-10T04:38:22;102393.13;;;6.62;51.85
46199;BME280;31928;52.104;10.030;2023-02-10T04:40:49;102391.28;;;6.62;51.86
46199;BME280;31928;52.104;10.030;2023-02-10T04:43:16;102393.66;;;6.65;51.57
46199;BME280;31928;52.104;10.030;2023-02-10T04:45:43;102391.28;;;6.91;49.42
46199;BME280;31928;52.104;10.030;2023-02-10T04:48:10;102394.94;;;6.71;51.31
46199;BME280;31928;52.104;10.030;2023-02-10T04:50:37;102386.09;;;6.70;51.56
46199;BME280;31928;52.104;10.030;2023-02-10T04:53:04;102398.59;;;6.70;51.76
46199;BME280;31928;52.104;10.030;2023-02-10T04:55:30;102397.47;;;6.72;51.66
46199;BME280;31928;52.104;10.030;2023-02-10T04:57:57;102379.63;;;6.73;51.86
46199;BME280;31928;52.104;10.030;2023-02-10T05:00:24;102376.81;;;6.74;51.99
46199;BME280;31928;52.104;10.030;2023-02-10T05:02:51;102381.34;;;6.74;52.01
46199;BME280;31928;52.104;10.030;2023-02-10T05:05:18;102376.81;;;6.74;52.07
46199;BME280;31928;52.104;10.030;2023-02-10T05:07:44;102386.66;;;6.74;51.91
46199;BME280;31928;52.104;10.030;2023-02-10T05:10:11;102383.84;;;6.75;52.27
46199;BME280;31928;52.104;10.030;2023-02-10T05:12:38;102385.41;;;6.78;52.16
46199;BME280;31928;52.104;10.030;2023-02-10T05:15:04;102400.41;;;6.79;52.19
46199;BME280;31928;52.104;10.030;2023-02-10T05:17:31;102389.75;;;6.79;51.83
46199;BME280;31928;52.104;10.030;2023-02-10T05:19:58;102399.28;;;6.81;51.48
46199;BME280;31928;52.104;10.030;2023-02-10T05:22:24;102392.13;;;6.82;56.20
46199;BME280;31928;52.104;10.030;2023-02-10T05:24:56;102399.44;;;6.89;60.42
46199;BME280;31928;52.104;10.030;2023-02-10T05:27:24;102394.25;;;7.07;63.04
46199;BME280;31928;52.104;10.030;2023-02-10T05:29:50;102393.34;;;7.34;64.57
46199;BME280;31928;52.104;10.030;2023-02-10T05:32:17;102401.16;;;7.64;64.64
46199;BME280;31928;52.104;10.030;2023-02-10T05:34:44;102403.88;;;7.91;57.15
46199;BME280;31928;52.104;10.030;2023-02-10T05:37:10;102396.13;;;8.34;54.87
46199;BME280;31928;52.104;10.030;2023-02-10T05:39:37;102392.75;;;8.32;52.50
46199;BME280;31928;52.104;10.030;2023-02-10T05:42:03;102404.50;;;8.38;51.13
46199;BME280;31928;52.104;10.030;2023-02-10T05:44:30;102397.91;;;8.42;50.19
46199;BME280;31928;52.104;10.030;2023-02-10T05:46:58;102398.03;;;8.41;50.02
46199;BME280;31928;52.104;10.030;2023-02-10T05:49:24;102404.50;;;8.38;49.82
46199;BME280;31928;52.104;10.030;2023-02-10T05:51:51;102397.78;;;8.35;56.04
46199;BME280;31928;52.104;10.030;2023-02-10T05:54:18;102398.91;;;8.32;59.33
46199;BME280;31928;52.104;10.030;2023-02-10T05:56:45;102402.84;;;8.38;60.45
46199;BME280;31928;52.104;10.030;2023-02-10T05:59:12;102403.63;;;8.47;60.83
46199;BME280;31928;52.104;10.030;2023-02-10T06:01:41;102401.56;;;8.59;61.00
46199;BME280;31928;52.104;10.030;2023-02-10T06:04:09;102402.91;;;8.72;59.07
46199;BME280;31928;52.104;10.030;2023-02-10T06:06:35;102411.91;;;9.06;54.68
46199;BME280;31928;52.104;10.030;2023-02-10T06:09:02;102413.88;;;9.04;58.58
46199;BME280;31928;52.104;10.030;2023-02-10T06:11:28;102419.03;;;9.15;51.79
46199;BME280;31928;52.104;10.030;2023-02-10T06:13:55;102422.31;;;9.26;50.48
46199;BME280;31928;52.104;10.030;2023-02-10T06:16:21;102427.19;;;9.31;49.49
46199;BME280;31928;52.104;10.030;2023-02-10T06:18:48;102428.03;;;9.31;49.01
46199;BME280;31928;52.104;10.030;2023-02-10T06:21:15;102434.84;;;9.26;48.61
46199;BME280;31928;52.104;10.030;2023-02-10T06:23:42;102442.78;;;9.18;48.59
46199;BME280;31928;52.104;10.030;2023-02-10T06:26:09;102436.53;;;9.09;48.50
46199;BME280;31928;52.104;10.030;2023-02-10T06:28:36;102446.31;;;9.01;48.46
46199;BME280;31928;52.104;10.030;2023-02-10T06:31:02;102437.38;;;8.93;48.34
46199;BME280;31928;52.104;10.030;2023-02-10T06:33:29;102435.25;;;9.13;47.97
46199;BME280;31928;52.104;10.030;2023-02-10T06:35:55;102443.41;;;8.77;48.39
46199;BME280;31928;52.104;10.030;2023-02-10T06:38:22;102454.28;;;8.66;48.66
46199;BME280;31928;52.104;10.030;2023-02-10T06:40:48;102443.81;;;8.55;48.70
46199;BME280;31928;52.104;10.030;2023-02-10T06:43:15;102454.41;;;8.47;48.90
46199;BME280;31928;52.104;10.030;2023-02-10T06:45:41;102454.31;;;8.39;49.51
46199;BME280;31928;52.104;10.030;2023-02-10T06:48:08;102458.56;;;8.33;49.34
46199;BME280;31928;52.104;10.030;2023-02-10T06:50:34;102468.16;;;8.26;49.74
46199;BME280;31928;52.104;10.030;2023-02-10T06:53:01;102467.91;;;8.19;49.82
46199;BME280;31928;52.104;10.030;2023-02-10T06:55:27;102476.38;;;8.15;50.03
46199;BME280;31928;52.104;10.030;2023-02-10T06:57:58;102480.03;;;8.14;50.09
46199;BME280;31928;52.104;10.030;2023-02-10T07:00:24;102463.16;;;8.04;50.04
46199;BME280;31928;52.104;10.030;2023-02-10T07:02:51;102467.81;;;8.02;50.22
46199;BME280;31928;52.104;10.030;2023-02-10T07:05:17;102463.75;;;7.98;50.04
46199;BME280;31928;52.104;10.030;2023-02-10T07:07:44;102470.44;;;8.21;48.63
46199;BME280;31928;52.104;10.030;2023-02-10T07:10:11;102467.69;;;7.94;50.21
46199;BME280;31928;52.104;10.030;2023-02-10T07:12:38;102478.78;;;7.89;50.40
46199;BME280;31928;52.104;10.030;2023-02-10T07:15:05;102477.25;;;7.87;50.42
46199;BME280;31928;52.104;10.030;2023-02-10T07:17:32;102471.38;;;7.83;50.81
46199;BME280;31928;52.104;10.030;2023-02-10T07:19:58;102470.53;;;7.83;50.77
46199;BME280;31928;52.104;10.030;2023-02-10T07:22:25;102475.28;;;7.79;50.97
46199;BME280;31928;52.104;10.030;2023-02-10T07:24:52;102469.97;;;7.79;51.33
46199;BME280;31928;52.104;10.030;2023-02-10T07:27:19;102469.28;;;7.77;51.30
46199;BME280;31928;52.104;10.030;2023-02-10T07:29:45;102467.72;;;7.75;51.34
46199;BME280;31928;52.104;10.030;2023-02-10T07:32:13;102469.69;;;7.73;51.47
46199;BME280;31928;52.104;10.030;2023-02-10T07:34:39;102471.69;;;7.71;51.59
46199;BME280;31928;52.104;10.030;2023-02-10T07:37:07;102472.66;;;7.70;51.54
46199;BME280;31928;52.104;10.030;2023-02-10T07:39:34;102473.78;;;7.68;52.00
46199;BME280;31928;52.104;10.030;2023-02-10T07:42:00;102480.09;;;7.67;52.04
46199;BME280;31928;52.104;10.030;2023-02-10T07:44:27;102486.31;;;7.67;52.11
46199;BME280;31928;52.104;10.030;2023-02-10T07:46:54;102487.28;;;7.66;52.26
46199;BME280;31928;52.104;10.030;2023-02-10T07:49:20;102485.75;;;7.64;51.98
46199;BME280;31928;52.104;10.030;2023-02-10T07:51:47;102478.72;;;7.63;52.47
46199;BME280;31928;52.104;10.030;2023-02-10T07:54:13;102491.22;;;7.62;52.57
46199;BME280;31928;52.104;10.030;2023-02-10T07:56:40;102491.06;;;7.64;52.29
46199;BME280;31928;52.104;10.030;2023-02-10T07:59:06;102497.53;;;7.61;52.41
46199;BME280;31928;52.104;10.030;2023-02-10T08:01:34;102498.53;;;7.60;52.60
46199;BME280;31928;52.104;10.030;2023-02-10T08:04:04;102503.03;;;7.60;52.47
46199;BME280;31928;52.104;10.030;2023-02-10T08:06:30;102500.22;;;7.61;52.77
46199;BME280;31928;52.104;10.030;2023-02-10T08:08:57;102501.91;;;7.62;52.76
46199;BME280;31928;52.104;10.030;2023-02-10T08:11:23;102500.06;;;7.63;52.43
46199;BME280;31928;52.104;10.030;2023-02-10T08:13:50;102502.59;;;7.64;52.96
46199;BME280;31928;52.104;10.030;2023-02-10T08:16:17;102502.59;;;7.64;52.64
46199;BME280;31928;52.104;10.030;2023-02-10T08:18:43;102495.28;;;7.66;52.75
46199;BME280;31928;52.104;10.030;2023-02-10T08:21:10;102501.59;;;7.65;52.86
46199;BME280;31928;52.104;10.030;2023-02-10T08:23:36;102512.84;;;7.69;53.12
46199;BME280;31928;52.104;10.030;2023-02-10T08:26:09;102520.41;;;7.73;52.68
46199;BME280;31928;52.104;10.030;2023-02-10T08:28:37;102518.03;;;7.70;52.81
46199;BME280;31928;52.104;10.030;2023-02-10T08:31:06;102515.22;;;7.72;52.84
46199;BME280;31928;52.104;10.030;2023-02-10T08:33:34;102524.09;;;7.72;52.97
46199;BME280;31928;52.104;10.030;2023-02-10T08:36:14;102523.09;;;7.73;53.15
46199;BME280;31928;52.104;10.030;2023-02-10T08:38:41;102525.75;;;7.73;53.13
46199;BME280;31928;52.104;10.030;2023-02-10T08:41:08;102519.16;;;7.77;52.96
46199;BME280;31928;52.104;10.030;2023-02-10T08:43:34;102523.03;;;8.01;50.62
46199;BME280;31928;52.104;10.030;2023-02-10T08:46:01;102518.59;;;7.83;52.77
46199;BME280;31928;52.104;10.030;2023-02-10T08:48:28;102514.22;;;7.82;52.78
46199;BME280;31928;52.104;10.030;2023-02-10T08:50:57;102525.63;;;7.84;52.67
46199;BME280;31928;52.104;10.030;2023-02-10T08:53:23;102528.97;;;7.86;53.12
46199;BME280;31928;52.104;10.030;2023-02-10T08:58:26;102532.91;;;7.91;53.20
46199;BME280;31928;52.104;10.030;2023-02-10T09:00:53;102530.09;;;7.93;53.01
46199;BME280;31928;52.104;10.030;2023-02-10T09:03:19;102529.81;;;7.96;53.26
46199;BME280;31928;52.104;10.030;2023-02-10T09:05:46;102518.84;;;7.99;53.07
46199;BME280;31928;52.104;10.030;2023-02-10T09:08:16;102527.53;;;8.01;53.38
46199;BME280;31928;52.104;10.030;2023-02-10T09:10:44;102527.25;;;8.04;52.95
46199;BME280;31928;52.104;10.030;2023-02-10T09:13:11;102531.63;;;8.05;53.48
46199;BME280;31928;52.104;10.030;2023-02-10T09:15:39;102534.69;;;8.10;53.36
46199;BME280;31928;52.104;10.030;2023-02-10T09:18:07;102535.16;;;8.15;53.45
46199;BME280;31928;52.104;10.030;2023-02-10T09:20:34;102527.53;;;8.20;53.26
46199;BME280;31928;52.104;10.030;2023-02-10T09:23:01;102528.06;;;8.23;52.99
46199;BME280;31928;52.104;10.030;2023-02-10T09:25:27;102522.97;;;8.30;53.08
46199;BME280;31928;52.104;10.030;2023-02-10T09:27:54;102525.78;;;8.38;53.13
46199;BME280;31928;52.104;10.030;2023-02-10T09:30:25;102528.88;;;8.42;52.85
46199;BME280;31928;52.104;10.030;2023-02-10T09:32:52;102524.47;;;8.51;52.85
46199;BME280;31928;52.104;10.030;2023-02-10T09:35:19;102530.75;;;8.59;52.67
46199;BME280;31928;52.104;10.030;2023-02-10T09:37:45;102544.97;;;8.87;51.35
46199;BME280;31928;52.104;10.030;2023-02-10T09:40:20;102537.69;;;8.79;52.09
46199;BME280;31928;52.104;10.030;2023-02-10T09:43:12;102549.84;;;8.91;51.60
46199;BME280;31928;52.104;10.030;2023-02-10T09:45:40;102544.13;;;8.86;52.04
46199;BME280;31928;52.104;10.030;2023-02-10T09:48:29;102548.59;;;8.95;51.27
46199;BME280;31928;52.104;10.030;2023-02-10T09:54:49;102539.94;;;9.01;51.47
46199;BME280;31928;52.104;10.030;2023-02-10T09:57:22;102538.66;;;9.05;51.38
46199;BME280;31928;52.104;10.030;2023-02-10T09:59:54;102545.00;;;9.04;51.59
46199;BME280;31928;52.104;10.030;2023-02-10T10:02:29;102544.56;;;9.08;51.17
46199;BME280;31928;52.104;10.030;2023-02-10T10:04:59;102544.56;;;9.08;51.51
46199;BME280;31928;52.104;10.030;2023-02-10T10:07:35;102537.06;;;9.12;51.13
46199;BME280;31928;52.104;10.030;2023-02-10T10:10:20;102547.31;;;9.16;50.95
46199;BME280;31928;52.104;10.030;2023-02-10T10:12:49;102546.41;;;9.08;51.36
46199;BME280;31928;52.104;10.030;2023-02-10T10:15:16;102549.59;;;9.11;51.09
46199;BME280;31928;52.104;10.030;2023-02-10T10:21:03;102543.72;;;9.25;51.05
46199;BME280;31928;52.104;10.030;2023-02-10T10:31:08;102546.56;;;9.24;51.23
46199;BME280;31928;52.104;10.030;2023-02-10T10:33:50;102538.22;;;9.27;51.11
46199;BME280;31928;52.104;10.030;2023-02-10T10:36:32;102537.63;;;9.33;50.56
46199;BME280;31928;52.104;10.030;2023-02-10T10:39:23;102531.44;;;9.32;50.58
46199;BME280;31928;52.104;10.030;2023-02-10T10:41:54;102540.06;;;9.26;51.23
46199;BME280;31928;52.104;10.030;2023-02-10T10:44:23;102534.56;;;9.28;50.86
46199;BME280;31928;52.104;10.030;2023-02-10T10:47:12;102541.69;;;9.37;50.51
46199;BME280;31928;52.104;10.030;2023-02-10T10:49:39;102534.88;;;9.25;51.03
46199;BME280;31928;52.104;10.030;2023-02-10T10:52:29;102530.25;;;9.35;50.64
46199;BME280;31928;52.104;10.030;2023-02-10T10:54:58;102537.38;;;9.26;50.97
46199;BME280;31928;52.104;10.030;2023-02-10T10:57:25;102532.03;;;9.26;50.91
46199;BME280;31928;52.104;10.030;2023-02-10T10:59:58;102526.38;;;9.29;51.02
46199;BME280;31928;52.104;10.030;2023-02-10T11:02:25;102528.22;;;9.29;50.68
46199;BME280;31928;52.104;10.030;2023-02-10T11:05:19;102523.91;;;9.36;50.95
46199;BME280;31928;52.104;10.030;2023-02-10T11:07:49;102522.38;;;9.33;50.81
46199;BME280;31928;52.104;10.030;2023-02-10T11:10:25;102524.78;;;9.36;50.86
46199;BME280;31928;52.104;10.030;2023-02-10T11:12:53;102528.59;;;9.34;50.51
46199;BME280;31928;52.104;10.030;2023-02-10T11:15:40;102529.34;;;9.44;50.41
46199;BME280;31928;52.104;10.030;2023-02-10T11:18:17;102517.28;;;9.40;50.48
46199;BME280;31928;52.104;10.030;2023-02-10T11:20:56;102522.34;;;9.43;50.25
46199;BME280;31928;52.104;10.030;2023-02-10T11:23:23;102516.88;;;9.35;51.09
46199;BME280;31928;52.104;10.030;2023-02-10T11:26:05;102507.94;;;9.44;50.71
46199;BME280;31928;52.104;10.030;2023-02-10T11:28:34;102512.94;;;9.39;50.93
46199;BME280;31928;52.104;10.030;2023-02-10T11:31:18;102516.06;;;9.52;51.00
46199;BME280;31928;52.104;10.030;2023-02-10T11:33:58;102508.09;;;9.59;50.40
46199;BME280;31928;52.104;10.030;2023-02-10T11:36:38;102504.31;;;9.70;50.55
46199;BME280;31928;52.104;10.030;2023-02-10T11:39:15;102507.53;;;9.73;50.48
46199;BME280;31928;52.104;10.030;2023-02-10T11:41:43;102503.06;;;9.82;50.26
46199;BME280;31928;52.104;10.030;2023-02-10T11:44:35;102507.13;;;10.03;50.21
46199;BME280;31928;52.104;10.030;2023-02-10T11:47:04;102505.81;;;10.07;49.59
46199;BME280;31928;52.104;10.030;2023-02-10T11:49:34;102499.50;;;10.16;49.75
46199;BME280;31928;52.104;10.030;2023-02-10T11:52:03;102502.22;;;10.24;49.42
46199;BME280;31928;52.104;10.030;2023-02-10T11:54:30;102488.84;;;10.32;49.63
46199;BME280;31928;52.104;10.030;2023-02-10T12:00:32;102491.31;;;10.59;48.76
46199;BME280;31928;52.104;10.030;2023-02-10T12:06:10;102491.06;;;10.77;48.29
46199;BME280;31928;52.104;10.030;2023-02-10T12:09:01;102482.34;;;10.83;48.01
46199;BME280;31928;52.104;10.030;2023-02-10T12:11:35;102489.41;;;10.84;48.03
46199;BME280;31928;52.104;10.030;2023-02-10T12:14:27;102484.38;;;10.89;47.91
46199;BME280;31928;52.104;10.030;2023-02-10T12:17:20;102483.41;;;11.06;47.85
46199;BME280;31928;52.104;10.030;2023-02-10T12:23:00;102493.16;;;11.15;47.18
46199;BME280;31928;52.104;10.030;2023-02-10T12:36:57;102489.00;;;11.44;46.44
46199;BME280;31928;52.104;10.030;2023-02-10T12:39:44;102487.50;;;11.42;46.34
46199;BME280;31928;52.104;10.030;2023-02-10T12:42:18;102489.66;;;11.38;45.77
46199;BME280;31928;52.104;10.030;2023-02-10T12:47:34;102477.09;;;11.39;45.96
46199;BME280;31928;52.104;10.030;2023-02-10T12:53:21;102478.28;;;11.44;45.92
46199;BME280;31928;52.104;10.030;2023-02-10T12:58:27;102463.66;;;11.39;45.95
46199;BME280;31928;52.104;10.030;2023-02-10T13:01:15;102463.50;;;11.48;46.38
46199;BME280;31928;52.104;10.030;2023-02-10T13:03:46;102472.06;;;11.44;45.92
46199;BME280;31928;52.104;10.030;2023-02-10T13:06:31;102460.84;;;11.56;45.88
46199;BME280;31928;52.104;10.030;2023-02-10T13:12:15;102459.34;;;11.62;46.00
46199;BME280;31928;52.104;10.030;2023-02-10T13:14:46;102461.69;;;11.57;45.67
46199;BME280;31928;52.104;10.030;2023-02-10T13:17:15;102454.28;;;11.59;45.13
46199;BME280;31928;52.104;10.030;2023-02-10T13:20:24;102454.13;;;11.68;45.31
46199;BME280;31928;52.104;10.030;2023-02-10T13:22:46;102459.81;;;11.65;44.56
46199;BME280;31928;52.104;10.030;2023-02-10T13:25:27;102446.22;;;11.75;45.20
46199;BME280;31928;52.104;10.030;2023-02-10T13:36:19;102419.34;;;11.67;44.56
46199;BME280;31928;52.104;10.030;2023-02-10T13:39:00;102411.47;;;11.65;44.93
46199;BME280;31928;52.104;10.030;2023-02-10T13:41:35;102402.25;;;11.60;45.13
46199;BME280;31928;52.104;10.030;2023-02-10T13:46:46;102400.19;;;11.46;45.05
46199;BME280;31928;52.104;10.030;2023-02-10T13:49:17;102402.72;;;11.39;44.91
46199;BME280;31928;52.104;10.030;2023-02-10T13:51:44;102408.78;;;11.34;44.83
46199;BME280;31928;52.104;10.030;2023-02-10T13:54:27;102414.63;;;11.37;45.46
46199;BME280;31928;52.104;10.030;2023-02-10T13:56:55;102403.91;;;11.29;45.00
46199;BME280;31928;52.104;10.030;2023-02-10T13:59:26;102392.50;;;11.27;44.83
46199;BME280;31928;52.104;10.030;2023-02-10T14:02:15;102399.88;;;11.25;44.81
46199;BME280;31928;52.104;10.030;2023-02-10T14:04:53;102385.78;;;11.31;44.95
46199;BME280;31928;52.104;10.030;2023-02-10T14:12:34;102372.34;;;11.15;43.96
46199;BME280;31928;52.104;10.030;2023-02-10T14:15:23;102367.84;;;11.24;44.52
46199;BME280;31928;52.104;10.030;2023-02-10T14:18:02;102373.69;;;11.11;43.67
46199;BME280;31928;52.104;10.030;2023-02-10T14:20:37;102375.22;;;11.06;44.04
46199;BME280;31928;52.104;10.030;2023-02-10T14:23:06;102375.72;;;11.01;44.09
46199;BME280;31928;52.104;10.030;2023-02-10T14:25:38;102373.03;;;11.01;44.08